Time;durP1;ratioP1;P1;durP2;ratioP2;P2;SDS_P1;SDS_P2;PMS_P1;PMS_P2;Temp;Humidity;BMP_temperature;BMP_pressure;BME280_temperature;BME280_humidity;BME280_pressure;Samples;Min_cycle;Max_cycle;Signal;HPM_P1;HPM_P2
2021/07/01 00:01:50;;;;;;;8.77;5.18;;;16.70;99.90;;;;;;5016646;28;20211;-74
2021/07/01 00:04:16;;;;;;;8.73;4.32;;;16.80;99.90;;;;;;5014143;28;20179;-73
2021/07/01 00:06:42;;;;;;;6.47;5.10;;;16.70;99.90;;;;;;5009969;28;20270;-72
2021/07/01 00:09:14;;;;;;;8.02;5.03;;;16.60;99.90;;;;;;5016893;28;20337;-72
2021/07/01 00:11:40;;;;;;;6.45;3.97;;;16.50;99.90;;;;;;5016058;28;20186;-73
2021/07/01 00:14:05;;;;;;;7.30;4.20;;;16.50;99.90;;;;;;5013499;28;20673;-72
2021/07/01 00:16:31;;;;;;;8.95;4.45;;;16.50;99.90;;;;;;5013137;28;20272;-72
2021/07/01 00:18:57;;;;;;;6.90;4.32;;;16.50;99.90;;;;;;5014047;28;20203;-73
2021/07/01 00:21:23;;;;;;;6.00;3.65;;;16.40;99.90;;;;;;5016417;28;20222;-73
2021/07/01 00:23:48;;;;;;;3.72;2.97;;;16.40;99.90;;;;;;5017627;28;20207;-72
2021/07/01 00:26:14;;;;;;;6.03;3.25;;;16.40;99.90;;;;;;5014326;28;20186;-72
2021/07/01 00:28:39;;;;;;;6.15;3.63;;;16.40;99.90;;;;;;5010306;28;20183;-72
2021/07/01 00:31:05;;;;;;;4.95;3.40;;;16.40;99.90;;;;;;5015169;28;20175;-73
2021/07/01 00:33:30;;;;;;;5.80;4.20;;;16.40;99.90;;;;;;5020616;28;20176;-76
2021/07/01 00:35:56;;;;;;;4.85;3.55;;;16.30;99.90;;;;;;5014692;28;20187;-72
2021/07/01 00:38:22;;;;;;;6.60;3.40;;;16.30;99.90;;;;;;5015431;28;20606;-72
2021/07/01 00:40:47;;;;;;;4.85;3.25;;;16.20;99.90;;;;;;5016607;28;20551;-72
2021/07/01 00:43:14;;;;;;;4.80;3.33;;;16.30;99.90;;;;;;5013085;28;20211;-72
2021/07/01 00:45:39;;;;;;;4.85;3.15;;;16.30;99.90;;;;;;5011390;28;20186;-72
2021/07/01 00:48:05;;;;;;;5.00;3.20;;;16.30;99.90;;;;;;5018087;28;20550;-72
2021/07/01 00:50:31;;;;;;;3.58;2.63;;;16.20;99.90;;;;;;5013889;28;20899;-71
2021/07/01 00:52:57;;;;;;;4.63;3.08;;;16.20;99.90;;;;;;5013864;28;20214;-72
2021/07/01 00:55:22;;;;;;;3.47;2.83;;;16.20;99.90;;;;;;5014234;28;20187;-72
2021/07/01 00:57:48;;;;;;;4.80;2.88;;;16.20;99.90;;;;;;5011571;28;20273;-73
2021/07/01 01:00:32;;;;;;;4.13;3.00;;;16.10;99.90;;;;;;5011987;28;20249;-74
2021/07/01 01:02:58;;;;;;;4.65;3.33;;;16.10;99.90;;;;;;5015401;28;20294;-71
2021/07/01 01:05:24;;;;;;;4.95;3.28;;;16.10;99.90;;;;;;4995697;28;20297;-72
2021/07/01 01:07:50;;;;;;;3.75;2.85;;;16.10;99.90;;;;;;5011754;28;20187;-73
2021/07/01 01:10:16;;;;;;;3.20;2.65;;;16.10;99.90;;;;;;5014328;28;20248;-72
2021/07/01 01:12:42;;;;;;;4.28;3.05;;;16.10;99.90;;;;;;5011894;28;20183;-72
2021/07/01 01:15:08;;;;;;;4.07;3.05;;;16.00;99.90;;;;;;5015259;28;20183;-72
2021/07/01 01:17:34;;;;;;;5.15;2.95;;;15.90;99.90;;;;;;5006106;28;20184;-74
2021/07/01 01:19:59;;;;;;;4.03;2.60;;;15.90;99.90;;;;;;5009773;28;20219;-71
2021/07/01 01:22:26;;;;;;;3.65;2.55;;;15.90;99.90;;;;;;5015899;28;20352;-71
2021/07/01 01:24:51;;;;;;;4.13;2.70;;;15.80;99.90;;;;;;5010145;28;20278;-72
2021/07/01 01:27:18;;;;;;;3.55;2.60;;;15.80;99.90;;;;;;5014045;28;20179;-72
2021/07/01 01:29:44;;;;;;;3.63;2.28;;;15.80;99.90;;;;;;5017229;28;20535;-71
2021/07/01 01:32:10;;;;;;;3.90;2.58;;;15.80;99.90;;;;;;5012152;28;20273;-70
2021/07/01 01:34:36;;;;;;;3.55;2.58;;;15.80;99.90;;;;;;5012676;28;20673;-70
2021/07/01 01:37:02;;;;;;;4.35;2.58;;;15.70;99.90;;;;;;5010979;28;20195;-70
2021/07/01 01:39:27;;;;;;;2.75;2.25;;;15.60;99.90;;;;;;5016702;28;20365;-70
2021/07/01 01:41:53;;;;;;;3.63;2.13;;;15.50;99.90;;;;;;5015817;28;20218;-70
2021/07/01 01:44:18;;;;;;;4.28;2.33;;;15.40;99.90;;;;;;5017169;28;20187;-69
2021/07/01 01:46:44;;;;;;;2.92;2.08;;;15.30;99.90;;;;;;5017824;28;20528;-70
2021/07/01 01:49:10;;;;;;;2.22;1.48;;;15.30;99.90;;;;;;5011537;28;20285;-70
2021/07/01 01:51:37;;;;;;;3.00;2.00;;;15.30;99.90;;;;;;5009956;28;20198;-70
2021/07/01 01:54:05;;;;;;;2.28;1.98;;;15.20;99.90;;;;;;5012540;28;20194;-71
2021/07/01 01:56:37;;;;;;;2.53;2.10;;;15.20;99.90;;;;;;5013386;28;20817;-70
2021/07/01 01:59:07;;;;;;;2.65;2.00;;;15.20;99.90;;;;;;5013514;28;20244;-70
2021/07/01 02:01:33;;;;;;;2.90;2.30;;;15.20;99.90;;;;;;5014606;28;20218;-70
2021/07/01 02:03:59;;;;;;;2.30;2.08;;;15.20;99.90;;;;;;5013761;28;20191;-69
2021/07/01 02:06:25;;;;;;;3.40;2.10;;;15.20;99.90;;;;;;5011814;28;20198;-69
2021/07/01 02:08:51;;;;;;;2.85;2.00;;;15.10;99.90;;;;;;5010102;28;20816;-70
2021/07/01 02:11:17;;;;;;;2.25;1.83;;;15.00;99.90;;;;;;5010772;28;20191;-71
2021/07/01 02:13:43;;;;;;;1.90;1.70;;;15.10;99.90;;;;;;5014283;28;20651;-73
2021/07/01 02:16:10;;;;;;;1.75;1.52;;;15.00;99.90;;;;;;5012191;28;20748;-71
2021/07/01 02:18:36;;;;;;;2.25;1.90;;;14.90;99.90;;;;;;5013920;28;20183;-70
2021/07/01 02:21:03;;;;;;;1.35;1.23;;;15.00;99.90;;;;;;5012160;28;20215;-72
2021/07/01 02:23:29;;;;;;;1.83;1.52;;;14.90;99.90;;;;;;5013739;28;20242;-69
2021/07/01 02:25:54;;;;;;;1.58;1.40;;;14.90;99.90;;;;;;5013489;28;20738;-70
2021/07/01 02:28:20;;;;;;;1.70;1.52;;;14.80;99.90;;;;;;5014296;28;20206;-70
2021/07/01 02:30:45;;;;;;;2.10;1.40;;;14.90;99.90;;;;;;5012080;28;20677;-71
2021/07/01 02:33:11;;;;;;;1.67;1.45;;;14.90;99.90;;;;;;5012068;28;20187;-72
2021/07/01 02:35:37;;;;;;;1.67;1.35;;;14.90;99.90;;;;;;5009569;28;20257;-71
2021/07/01 02:38:02;;;;;;;1.83;1.48;;;14.90;99.90;;;;;;5013592;28;20366;-71
2021/07/01 02:40:29;;;;;;;1.92;1.20;;;14.80;99.90;;;;;;5014445;28;20570;-72
2021/07/01 02:42:54;;;;;;;1.75;1.60;;;14.80;99.90;;;;;;5016417;28;20211;-71
2021/07/01 02:45:20;;;;;;;2.55;1.88;;;14.80;99.90;;;;;;5009424;28;20643;-70
2021/07/01 02:47:46;;;;;;;2.38;1.70;;;14.80;99.90;;;;;;5013510;28;20187;-70
2021/07/01 02:50:12;;;;;;;3.17;1.52;;;14.80;99.90;;;;;;5014731;28;20733;-72
2021/07/01 02:52:38;;;;;;;2.08;1.75;;;14.80;99.90;;;;;;5014217;28;20195;-71
2021/07/01 02:55:06;;;;;;;2.22;1.65;;;14.70;99.90;;;;;;5015139;28;20191;-72
2021/07/01 02:57:32;;;;;;;1.98;1.77;;;14.70;99.90;;;;;;5016209;28;20551;-70
2021/07/01 02:59:58;;;;;;;3.05;2.15;;;14.70;99.90;;;;;;5017659;28;20204;-71
2021/07/01 03:02:23;;;;;;;2.28;1.67;;;14.70;99.90;;;;;;5019539;28;20211;-71
2021/07/01 03:04:49;;;;;;;2.10;1.63;;;14.70;99.90;;;;;;5018422;28;20179;-71
2021/07/01 03:07:15;;;;;;;1.90;1.35;;;14.70;99.90;;;;;;5015605;28;20766;-71
2021/07/01 03:09:40;;;;;;;2.47;1.70;;;14.70;99.90;;;;;;5014324;28;20214;-71
2021/07/01 03:12:06;;;;;;;2.95;1.80;;;14.70;99.90;;;;;;5018022;28;20555;-72
2021/07/01 03:14:32;;;;;;;1.60;1.48;;;14.60;99.90;;;;;;5019201;28;20196;-72
2021/07/01 03:16:57;;;;;;;1.48;1.23;;;14.60;99.90;;;;;;5014383;28;20205;-75
2021/07/01 03:19:23;;;;;;;2.53;1.77;;;14.60;99.90;;;;;;5018558;28;20202;-70
2021/07/01 03:21:49;;;;;;;1.92;1.77;;;14.70;99.90;;;;;;5016450;28;20989;-72
2021/07/01 03:24:15;;;;;;;2.17;1.83;;;14.70;99.90;;;;;;5016631;28;20198;-70
2021/07/01 03:26:40;;;;;;;2.15;1.95;;;14.70;99.90;;;;;;5015123;28;20183;-71
2021/07/01 03:29:07;;;;;;;3.40;1.88;;;14.70;99.90;;;;;;5016990;28;20206;-70
2021/07/01 03:31:33;;;;;;;2.40;1.77;;;14.70;99.90;;;;;;5017110;28;20183;-70
2021/07/01 03:33:59;;;;;;;2.00;1.63;;;14.70;99.90;;;;;;5016924;28;20192;-71
2021/07/01 03:36:24;;;;;;;2.80;1.90;;;14.70;99.90;;;;;;5015862;28;20187;-71
2021/07/01 03:38:50;;;;;;;2.10;1.52;;;14.70;99.90;;;;;;5010499;28;20345;-71
2021/07/01 03:41:16;;;;;;;4.15;2.40;;;14.70;99.90;;;;;;5018366;28;20192;-71
2021/07/01 03:43:45;;;;;;;3.03;1.90;;;14.80;99.90;;;;;;5015886;28;20229;-71
2021/07/01 03:46:13;;;;;;;1.52;1.38;;;14.80;99.90;;;;;;5017313;28;20321;-71
2021/07/01 03:48:39;;;;;;;1.90;1.70;;;14.80;99.90;;;;;;5015941;28;20174;-74
2021/07/01 03:51:06;;;;;;;2.17;1.80;;;14.80;99.90;;;;;;5000609;28;20190;-71
2021/07/01 03:53:32;;;;;;;2.92;2.17;;;14.80;99.90;;;;;;5017606;28;20222;-70
2021/07/01 03:55:58;;;;;;;3.33;2.20;;;14.80;99.90;;;;;;5014214;28;20187;-70
2021/07/01 03:58:24;;;;;;;2.60;1.80;;;14.80;99.90;;;;;;5016978;28;20721;-72
2021/07/01 04:00:50;;;;;;;2.55;1.92;;;14.90;99.90;;;;;;5017843;28;20211;-71
2021/07/01 04:03:16;;;;;;;2.20;1.80;;;14.90;99.90;;;;;;5006928;28;20207;-71
2021/07/01 04:05:41;;;;;;;2.15;1.95;;;14.80;99.90;;;;;;5016103;28;20189;-71
2021/07/01 04:08:07;;;;;;;3.05;2.42;;;14.80;99.90;;;;;;5000641;28;20190;-71
2021/07/01 04:10:33;;;;;;;2.05;1.85;;;14.80;99.90;;;;;;5015339;28;20211;-74
2021/07/01 04:12:59;;;;;;;1.73;1.63;;;14.70;99.90;;;;;;5006903;28;20223;-71
2021/07/01 04:15:25;;;;;;;2.28;2.08;;;14.70;99.90;;;;;;5017042;28;20206;-71
2021/07/01 04:17:50;;;;;;;2.15;1.90;;;14.70;99.90;;;;;;5015045;28;20198;-71
2021/07/01 04:20:17;;;;;;;2.92;2.53;;;14.70;99.90;;;;;;5017516;28;20203;-74
2021/07/01 04:22:43;;;;;;;2.60;2.03;;;14.60;99.90;;;;;;5000000;28;20709;-71
2021/07/01 04:25:09;;;;;;;4.22;2.22;;;14.70;99.90;;;;;;5014611;28;20187;-71
2021/07/01 04:27:34;;;;;;;3.03;2.20;;;14.70;99.90;;;;;;5020146;28;20715;-73
2021/07/01 04:30:00;;;;;;;2.22;1.83;;;14.60;99.90;;;;;;5013770;28;20215;-71
2021/07/01 04:32:26;;;;;;;2.15;1.92;;;14.60;99.90;;;;;;5016418;28;20187;-71
2021/07/01 04:34:52;;;;;;;3.10;2.13;;;14.60;99.90;;;;;;5014733;28;20197;-71
2021/07/01 04:37:17;;;;;;;2.25;2.05;;;14.60;99.90;;;;;;5017413;28;20197;-71
2021/07/01 04:39:43;;;;;;;3.35;2.25;;;14.60;99.90;;;;;;5016974;28;20213;-72
2021/07/01 04:42:09;;;;;;;4.28;2.40;;;14.70;99.90;;;;;;5017373;28;20255;-72
2021/07/01 04:44:35;;;;;;;2.20;2.00;;;14.60;99.90;;;;;;5015926;28;20314;-73
2021/07/01 04:47:00;;;;;;;3.05;2.22;;;14.50;99.90;;;;;;5012743;28;20198;-72
2021/07/01 04:49:26;;;;;;;3.35;2.60;;;14.60;99.90;;;;;;5015008;28;20212;-71
2021/07/01 04:51:52;;;;;;;3.53;2.13;;;14.60;99.90;;;;;;5019283;28;20197;-72
2021/07/01 04:54:17;;;;;;;3.58;2.83;;;14.50;99.90;;;;;;5018337;28;20315;-71
2021/07/01 04:56:45;;;;;;;4.60;2.40;;;14.50;99.90;;;;;;5018028;28;20704;-71
2021/07/01 04:59:12;;;;;;;3.90;2.33;;;14.50;99.90;;;;;;5017540;28;20206;-73
2021/07/01 05:01:38;;;;;;;3.05;2.33;;;14.60;99.90;;;;;;5016055;28;20203;-73
2021/07/01 05:04:06;;;;;;;3.03;2.25;;;14.60;99.90;;;;;;5014923;28;20646;-71
2021/07/01 05:06:32;;;;;;;3.63;2.33;;;14.60;99.90;;;;;;5015575;28;20224;-71
2021/07/01 05:08:57;;;;;;;3.33;2.70;;;14.60;99.90;;;;;;5016627;28;20212;-71
2021/07/01 05:11:25;;;;;;;3.03;2.50;;;14.60;99.90;;;;;;5015605;28;20187;-71
2021/07/01 05:13:51;;;;;;;3.90;2.45;;;14.60;99.90;;;;;;5015203;28;20180;-71
2021/07/01 05:16:16;;;;;;;3.67;2.28;;;14.60;99.90;;;;;;5015084;28;20229;-72
2021/07/01 05:18:42;;;;;;;3.05;2.60;;;14.60;99.90;;;;;;5018434;28;20515;-71
2021/07/01 05:21:07;;;;;;;2.72;2.35;;;14.60;99.90;;;;;;5016671;28;20684;-70
2021/07/01 05:23:33;;;;;;;3.83;2.47;;;14.50;99.90;;;;;;5010982;28;20245;-70
2021/07/01 05:25:59;;;;;;;3.65;2.17;;;14.60;99.90;;;;;;5010053;28;20249;-71
2021/07/01 05:28:24;;;;;;;2.58;2.05;;;14.60;99.90;;;;;;5014535;28;20709;-71
2021/07/01 05:30:50;;;;;;;2.90;2.60;;;14.60;99.90;;;;;;5013634;28;20202;-72
2021/07/01 05:33:16;;;;;;;2.92;2.20;;;14.60;99.90;;;;;;5018636;28;20950;-71
2021/07/01 05:35:42;;;;;;;3.35;2.20;;;14.70;99.90;;;;;;5011618;28;20197;-70
2021/07/01 05:38:07;;;;;;;3.35;2.55;;;14.70;99.90;;;;;;5009520;28;20196;-71
2021/07/01 05:40:33;;;;;;;5.60;3.53;;;14.70;99.90;;;;;;5010590;28;20241;-72
2021/07/01 05:42:59;;;;;;;3.80;3.38;;;14.70;99.90;;;;;;4996380;28;20752;-70
2021/07/01 05:45:24;;;;;;;3.05;2.67;;;14.60;99.90;;;;;;5010380;28;20638;-71
2021/07/01 05:47:50;;;;;;;4.15;2.50;;;14.60;99.90;;;;;;5015158;28;20242;-72
2021/07/01 05:50:16;;;;;;;5.30;2.83;;;14.70;99.90;;;;;;5011879;28;20199;-70
2021/07/01 05:52:46;;;;;;;3.13;2.83;;;14.70;99.90;;;;;;5016311;28;20230;-72
2021/07/01 05:55:12;;;;;;;4.00;3.08;;;14.70;99.90;;;;;;5013694;28;20186;-73
2021/07/01 05:57:38;;;;;;;3.97;2.67;;;14.70;99.90;;;;;;5015210;28;20185;-71
2021/07/01 06:00:08;;;;;;;3.25;2.70;;;14.80;99.90;;;;;;5015461;28;20210;-72
2021/07/01 06:02:34;;;;;;;3.13;2.50;;;14.90;99.90;;;;;;5017051;28;20655;-72
2021/07/01 06:04:59;;;;;;;2.88;2.58;;;14.90;99.90;;;;;;5012395;28;20187;-71
2021/07/01 06:07:26;;;;;;;4.78;2.67;;;15.00;99.90;;;;;;5014921;28;20658;-73
2021/07/01 06:09:54;;;;;;;3.08;2.40;;;15.00;99.90;;;;;;5010781;28;20219;-70
2021/07/01 06:12:23;;;;;;;2.40;2.00;;;15.00;99.90;;;;;;5013248;28;20240;-71
2021/07/01 06:14:55;;;;;;;2.53;1.85;;;15.00;99.90;;;;;;5016734;28;20261;-71
2021/07/01 06:17:22;;;;;;;2.30;2.10;;;14.90;99.90;;;;;;5014668;28;20554;-71
2021/07/01 06:19:49;;;;;;;2.63;2.17;;;15.00;99.90;;;;;;5013692;28;20199;-71
2021/07/01 06:22:16;;;;;;;1.67;1.58;;;15.00;99.90;;;;;;5011504;28;20689;-72
2021/07/01 06:24:42;;;;;;;3.03;2.03;;;15.10;99.90;;;;;;5009868;28;20567;-71
2021/07/01 06:27:09;;;;;;;2.38;2.13;;;15.10;99.90;;;;;;5013557;28;20639;-73
2021/07/01 06:29:36;;;;;;;6.05;2.38;;;15.10;99.90;;;;;;5016403;28;20202;-71
2021/07/01 06:32:02;;;;;;;2.53;2.10;;;15.20;99.90;;;;;;5013270;28;20203;-71
2021/07/01 06:34:28;;;;;;;2.13;1.90;;;15.20;99.90;;;;;;5016449;28;20187;-72
2021/07/01 06:36:59;;;;;;;1.85;1.63;;;15.10;99.90;;;;;;5018866;28;20262;-71
2021/07/01 06:39:27;;;;;;;3.90;2.00;;;15.10;99.90;;;;;;5017613;28;20198;-72
2021/07/01 06:41:54;;;;;;;1.80;1.67;;;15.10;99.90;;;;;;5016197;28;20249;-72
2021/07/01 06:44:21;;;;;;;5.05;2.17;;;15.20;99.90;;;;;;5019521;28;20215;-71
2021/07/01 06:46:47;;;;;;;3.22;2.00;;;15.10;99.90;;;;;;5017030;28;20198;-71
2021/07/01 06:49:13;;;;;;;2.47;1.75;;;15.10;99.90;;;;;;5016963;28;20562;-71
2021/07/01 06:51:41;;;;;;;1.77;1.67;;;15.20;99.90;;;;;;5010454;28;20627;-71
2021/07/01 06:54:13;;;;;;;1.95;1.70;;;15.10;99.90;;;;;;5019346;28;20622;-72
2021/07/01 06:56:40;;;;;;;1.98;1.60;;;15.20;99.90;;;;;;5013933;28;20686;-71
2021/07/01 06:59:14;;;;;;;2.08;1.60;;;15.20;99.90;;;;;;5010242;28;20210;-71
2021/07/01 07:01:40;;;;;;;1.25;1.15;;;15.20;99.90;;;;;;5003863;28;20320;-71
2021/07/01 07:04:06;;;;;;;1.50;1.40;;;15.20;99.90;;;;;;5015501;28;20250;-71
2021/07/01 07:06:35;;;;;;;2.05;1.35;;;15.10;99.90;;;;;;5014622;28;20714;-72
2021/07/01 07:09:01;;;;;;;1.40;1.00;;;15.20;99.90;;;;;;5015301;28;20213;-71
2021/07/01 07:11:27;;;;;;;1.42;0.80;;;15.30;99.90;;;;;;5010863;28;20183;-73
2021/07/01 07:13:53;;;;;;;1.10;1.00;;;15.30;99.90;;;;;;5015197;28;20179;-72
2021/07/01 07:16:19;;;;;;;1.05;1.02;;;15.40;99.90;;;;;;5017112;28;20314;-71
2021/07/01 07:18:48;;;;;;;1.02;1.00;;;15.40;99.90;;;;;;5018479;28;20226;-71
2021/07/01 07:21:17;;;;;;;0.88;0.85;;;15.40;99.90;;;;;;5012284;28;20535;-71
2021/07/01 07:23:45;;;;;;;1.38;1.27;;;15.50;99.90;;;;;;5008672;28;20211;-71
2021/07/01 07:26:20;;;;;;;1.15;1.05;;;15.70;99.90;;;;;;5013866;28;20236;-72
2021/07/01 07:28:51;;;;;;;0.90;0.80;;;15.80;99.90;;;;;;5016047;28;20206;-73
2021/07/01 07:31:27;;;;;;;1.58;0.88;;;15.90;99.90;;;;;;5018814;28;20211;-71
2021/07/01 07:33:54;;;;;;;0.70;0.70;;;16.10;99.90;;;;;;5009872;28;20179;-70
2021/07/01 07:36:25;;;;;;;1.50;0.60;;;16.10;99.90;;;;;;5010098;28;20993;-71
2021/07/01 07:38:52;;;;;;;2.30;1.02;;;16.30;99.90;;;;;;5022442;28;20249;-70
2021/07/01 07:41:18;;;;;;;0.80;0.80;;;16.40;99.90;;;;;;5010339;28;20266;-70
2021/07/01 07:43:45;;;;;;;1.02;0.93;;;16.40;99.90;;;;;;5016152;28;20215;-70
2021/07/01 07:46:11;;;;;;;0.77;0.70;;;16.30;99.90;;;;;;5013862;28;20685;-70
2021/07/01 07:48:38;;;;;;;0.88;0.68;;;16.40;99.90;;;;;;5012445;28;20205;-70
2021/07/01 07:51:05;;;;;;;0.70;0.70;;;16.40;99.90;;;;;;4990883;28;20195;-70
2021/07/01 07:53:32;;;;;;;0.60;0.50;;;16.30;99.90;;;;;;5009545;28;20219;-70
2021/07/01 07:56:04;;;;;;;1.38;0.70;;;16.30;99.90;;;;;;5009926;28;20919;-72
2021/07/01 07:58:33;;;;;;;0.85;0.73;;;16.20;99.90;;;;;;5012377;28;21027;-72
2021/07/01 08:01:02;;;;;;;0.68;0.68;;;16.20;99.90;;;;;;5016756;28;20222;-73
2021/07/01 08:03:32;;;;;;;0.80;0.80;;;16.10;99.90;;;;;;5015706;28;20214;-73
2021/07/01 08:06:01;;;;;;;0.70;0.70;;;16.00;99.90;;;;;;5013927;28;20179;-72
2021/07/01 08:08:32;;;;;;;0.70;0.70;;;15.90;99.90;;;;;;5017670;28;20171;-74
2021/07/01 08:11:00;;;;;;;0.80;0.80;;;15.90;99.90;;;;;;5018645;28;20176;-73
2021/07/01 08:13:27;;;;;;;1.45;0.60;;;15.90;99.90;;;;;;5017276;28;20596;-73
2021/07/01 08:15:53;;;;;;;1.50;0.90;;;15.90;99.90;;;;;;5016250;28;20240;-72
2021/07/01 08:18:31;;;;;;;0.60;0.60;;;15.90;99.90;;;;;;5014909;28;20183;-74
2021/07/01 08:20:58;;;;;;;0.50;0.50;;;15.60;99.90;;;;;;4998267;28;20270;-72
2021/07/01 08:23:24;;;;;;;0.45;0.45;;;15.70;99.90;;;;;;5010594;28;20252;-73
2021/07/01 08:25:52;;;;;;;0.60;0.60;;;15.70;99.90;;;;;;5007138;28;20637;-73
2021/07/01 08:28:19;;;;;;;0.60;0.60;;;15.80;99.90;;;;;;5013306;28;20549;-73
2021/07/01 08:30:45;;;;;;;0.60;0.60;;;15.90;99.90;;;;;;5018259;28;20207;-72
2021/07/01 08:33:12;;;;;;;1.15;1.00;;;15.90;99.90;;;;;;5016769;28;20195;-72
2021/07/01 08:35:38;;;;;;;0.55;0.55;;;15.90;99.90;;;;;;5014810;28;20280;-74
2021/07/01 08:38:05;;;;;;;0.85;0.80;;;15.90;99.90;;;;;;5013528;28;20576;-73
2021/07/01 08:40:36;;;;;;;1.00;0.60;;;15.90;99.90;;;;;;5013339;28;20207;-72
2021/07/01 08:43:04;;;;;;;1.23;0.63;;;16.00;99.90;;;;;;5017255;28;20306;-73
2021/07/01 08:45:56;;;;;;;0.50;0.50;;;15.90;99.90;;;;;;5014782;28;20233;-73
2021/07/01 08:48:24;;;;;;;1.23;0.45;;;15.90;99.90;;;;;;5005267;28;20191;-73
2021/07/01 08:50:55;;;;;;;0.73;0.70;;;16.00;99.90;;;;;;5005749;28;20416;-71
2021/07/01 08:53:58;;;;;;;0.38;0.38;;;15.90;99.90;;;;;;5013049;28;20666;-73
2021/07/01 08:56:25;;;;;;;0.30;0.30;;;15.90;99.90;;;;;;4995650;28;20234;-73
2021/07/01 08:58:54;;;;;;;0.22;0.22;;;15.70;99.90;;;;;;5014796;28;20797;-73
2021/07/01 09:01:24;;;;;;;0.30;0.30;;;15.70;99.90;;;;;;5015540;28;20203;-73
2021/07/01 09:03:57;;;;;;;0.25;0.25;;;15.70;99.90;;;;;;5013362;28;20191;-72
2021/07/01 09:06:24;;;;;;;0.40;0.40;;;15.70;99.90;;;;;;5012933;28;20194;-72
2021/07/01 09:08:52;;;;;;;0.32;0.30;;;15.70;99.90;;;;;;5011952;28;20682;-70
2021/07/01 09:11:22;;;;;;;0.30;0.30;;;15.60;99.90;;;;;;4999586;28;20187;-70
2021/07/01 09:13:49;;;;;;;0.40;0.40;;;15.60;99.90;;;;;;5016843;28;20218;-71
2021/07/01 09:16:16;;;;;;;0.30;0.30;;;15.70;99.90;;;;;;5012760;28;20186;-71
2021/07/01 09:18:45;;;;;;;0.40;0.40;;;15.70;99.90;;;;;;5009722;28;20195;-71
2021/07/01 09:21:12;;;;;;;0.40;0.40;;;15.70;99.90;;;;;;5016071;28;21175;-71
2021/07/01 09:23:45;;;;;;;0.40;0.40;;;15.90;99.90;;;;;;5014305;28;20225;-71
2021/07/01 09:26:22;;;;;;;0.40;0.40;;;15.80;99.90;;;;;;5013367;28;20617;-71
2021/07/01 09:28:49;;;;;;;0.28;0.28;;;16.00;99.90;;;;;;5016806;28;20654;-71
2021/07/01 09:31:20;;;;;;;0.45;0.40;;;16.20;99.90;;;;;;5010785;28;20194;-72
2021/07/01 09:33:48;;;;;;;0.40;0.40;;;16.40;99.90;;;;;;5005926;28;20630;-72
2021/07/01 09:36:18;;;;;;;0.20;0.20;;;16.30;99.90;;;;;;5014343;28;20238;-72
2021/07/01 09:38:46;;;;;;;0.40;0.40;;;16.40;99.90;;;;;;5013097;28;20241;-72
2021/07/01 09:41:13;;;;;;;0.55;0.55;;;16.30;99.90;;;;;;5015040;28;20179;-72
2021/07/01 09:43:40;;;;;;;0.40;0.40;;;16.20;99.90;;;;;;5013491;28;20211;-71
2021/07/01 09:46:12;;;;;;;0.40;0.40;;;16.20;99.90;;;;;;5013434;28;20219;-71
2021/07/01 09:48:44;;;;;;;0.30;0.30;;;16.30;99.90;;;;;;5014846;28;20182;-71
2021/07/01 09:51:10;;;;;;;0.40;0.30;;;16.30;99.90;;;;;;5012012;28;20186;-71
2021/07/01 09:53:37;;;;;;;0.75;0.50;;;16.40;99.90;;;;;;5012486;28;20196;-72
2021/07/01 09:56:06;;;;;;;0.35;0.35;;;16.40;99.90;;;;;;5009934;28;20617;-71
2021/07/01 09:58:46;;;;;;;0.30;0.30;;;16.50;99.90;;;;;;5010909;28;20192;-72
2021/07/01 10:01:24;;;;;;;0.50;0.50;;;16.60;99.90;;;;;;5010473;28;20556;-72
2021/07/01 10:03:56;;;;;;;0.45;0.40;;;16.60;99.90;;;;;;5016960;28;20214;-73
2021/07/01 10:06:23;;;;;;;0.88;0.50;;;16.60;99.90;;;;;;5016147;28;20178;-71
2021/07/01 10:08:49;;;;;;;0.22;0.22;;;16.60;99.90;;;;;;5016831;28;20234;-73
2021/07/01 10:11:15;;;;;;;0.38;0.38;;;16.40;99.90;;;;;;5016643;28;20218;-73
2021/07/01 10:13:53;;;;;;;0.50;0.50;;;16.50;99.90;;;;;;5018041;28;20210;-72
2021/07/01 10:16:25;;;;;;;0.22;0.20;;;16.50;99.90;;;;;;5016741;28;20187;-73
2021/07/01 10:18:51;;;;;;;1.15;0.60;;;16.60;99.90;;;;;;5018821;28;20582;-73
2021/07/01 10:21:17;;;;;;;0.60;0.60;;;16.70;99.90;;;;;;5013474;28;20187;-73
2021/07/01 10:23:43;;;;;;;0.57;0.43;;;16.70;99.90;;;;;;5014389;28;20284;-73
2021/07/01 10:26:21;;;;;;;0.80;0.65;;;16.60;99.90;;;;;;5010836;28;20183;-72
2021/07/01 10:29:00;;;;;;;0.50;0.50;;;16.60;99.90;;;;;;5010678;28;20203;-71
2021/07/01 10:31:27;;;;;;;0.50;0.50;;;16.60;99.90;;;;;;5010004;28;20206;-72
2021/07/01 10:33:58;;;;;;;0.30;0.30;;;16.60;99.90;;;;;;5010200;28;20188;-71
2021/07/01 10:36:27;;;;;;;0.40;0.40;;;16.80;99.90;;;;;;5015974;28;20243;-72
2021/07/01 10:38:53;;;;;;;1.23;0.30;;;16.80;99.90;;;;;;5010536;28;20214;-71
2021/07/01 10:41:34;;;;;;;0.30;0.30;;;16.80;99.90;;;;;;5010885;28;20192;-70
2021/07/01 10:44:01;;;;;;;0.60;0.60;;;16.70;99.90;;;;;;5020430;28;20182;-71
2021/07/01 10:46:42;;;;;;;0.30;0.30;;;16.80;99.90;;;;;;5014937;28;20203;-71
2021/07/01 10:49:09;;;;;;;0.40;0.40;;;16.90;99.90;;;;;;5010980;28;20203;-70
2021/07/01 10:51:35;;;;;;;0.30;0.30;;;17.00;99.90;;;;;;5014896;28;20591;-72
2021/07/01 10:54:15;;;;;;;0.20;0.20;;;16.90;99.90;;;;;;5016863;28;20193;-72
2021/07/01 10:56:43;;;;;;;1.45;0.45;;;16.90;99.90;;;;;;5015343;28;20267;-71
2021/07/01 10:59:11;;;;;;;0.40;0.40;;;16.90;99.90;;;;;;5017306;28;20499;-72
2021/07/01 11:01:41;;;;;;;0.30;0.30;;;16.80;99.90;;;;;;5010152;28;20658;-71
2021/07/01 11:04:17;;;;;;;0.40;0.40;;;16.80;99.90;;;;;;5009969;28;21223;-71
2021/07/01 11:06:44;;;;;;;0.85;0.32;;;16.90;99.90;;;;;;5016172;28;20186;-72
2021/07/01 11:09:12;;;;;;;0.28;0.28;;;17.00;99.90;;;;;;5016453;28;20207;-71
2021/07/01 11:11:42;;;;;;;0.45;0.45;;;17.10;99.90;;;;;;5016813;28;20183;-72
2021/07/01 11:14:11;;;;;;;0.32;0.30;;;17.20;99.90;;;;;;5016977;28;20179;-72
2021/07/01 11:16:40;;;;;;;0.40;0.40;;;17.10;99.90;;;;;;5014214;28;20207;-71
2021/07/01 11:19:08;;;;;;;0.20;0.20;;;17.00;99.90;;;;;;5017741;28;20203;-71
2021/07/01 11:21:34;;;;;;;0.43;0.40;;;16.90;99.90;;;;;;5014627;28;20655;-72
2021/07/01 11:24:17;;;;;;;0.43;0.43;;;17.00;99.90;;;;;;5014202;28;20206;-71
2021/07/01 11:26:47;;;;;;;0.22;0.22;;;17.10;99.90;;;;;;5009958;28;20180;-72
2021/07/01 11:29:12;;;;;;;0.47;0.30;;;17.30;99.90;;;;;;5009646;28;20207;-71
2021/07/01 11:31:45;;;;;;;0.30;0.30;;;17.30;99.90;;;;;;5013271;28;20199;-72
2021/07/01 11:34:18;;;;;;;0.40;0.40;;;17.40;99.90;;;;;;5008105;28;20258;-70
2021/07/01 11:36:48;;;;;;;0.40;0.40;;;17.30;99.90;;;;;;5015144;28;20186;-72
2021/07/01 11:39:16;;;;;;;0.30;0.30;;;17.20;99.90;;;;;;5012606;28;20194;-73
2021/07/01 11:48:31;;;;;;;0.40;0.40;;;17.20;99.90;;;;;;5040923;22;20226;-80
2021/07/01 11:51:00;;;;;;;0.38;0.38;;;17.30;99.90;;;;;;5033910;28;20182;-78
2021/07/01 11:53:26;;;;;;;0.30;0.30;;;17.30;99.90;;;;;;5033302;28;20196;-80
2021/07/01 11:55:57;;;;;;;0.35;0.35;;;17.00;99.90;;;;;;5030897;28;20604;-80
2021/07/01 11:58:23;;;;;;;0.30;0.30;;;16.90;99.90;;;;;;5042249;28;20206;-78
2021/07/01 12:00:49;;;;;;;0.82;0.40;;;17.00;99.90;;;;;;5032766;28;20285;-77
2021/07/01 12:03:15;;;;;;;0.30;0.30;;;17.10;99.90;;;;;;5037852;28;20275;-77
2021/07/01 12:05:47;;;;;;;0.40;0.40;;;17.10;99.90;;;;;;5034954;28;20187;-78
2021/07/01 12:08:14;;;;;;;0.50;0.50;;;17.20;99.90;;;;;;5030532;28;20203;-80
2021/07/01 12:10:40;;;;;;;0.35;0.35;;;17.10;99.90;;;;;;5031259;28;20179;-78
2021/07/01 12:13:32;;;;;;;0.50;0.38;;;17.10;99.90;;;;;;5031578;28;20182;-79
2021/07/01 12:16:04;;;;;;;0.32;0.32;;;17.10;99.90;;;;;;5017258;28;20560;-78
2021/07/01 12:18:48;;;;;;;0.38;0.38;;;17.10;99.90;;;;;;5036115;28;20204;-76
2021/07/01 12:21:15;;;;;;;0.50;0.50;;;17.20;99.90;;;;;;5036493;28;20186;-79
2021/07/01 12:23:46;;;;;;;0.30;0.30;;;17.20;99.90;;;;;;5034422;28;20213;-79
2021/07/01 12:26:33;;;;;;;1.15;0.80;;;17.00;99.90;;;;;;5033821;28;20186;-78
2021/07/01 12:29:00;;;;;;;0.52;0.52;;;17.10;99.90;;;;;;5035179;28;20265;-78
2021/07/01 12:31:26;;;;;;;0.50;0.50;;;17.20;99.90;;;;;;5035790;28;20178;-79
2021/07/01 12:34:03;;;;;;;0.50;0.50;;;17.10;99.90;;;;;;5034538;28;20194;-78
2021/07/01 12:36:40;;;;;;;0.45;0.45;;;17.10;99.90;;;;;;5030063;28;20206;-79
2021/07/01 12:39:06;;;;;;;0.40;0.40;;;17.20;99.90;;;;;;5025920;28;20629;-78
2021/07/01 12:41:34;;;;;;;0.40;0.40;;;17.10;99.90;;;;;;5027338;28;20760;-80
2021/07/01 12:44:04;;;;;;;0.52;0.40;;;17.00;99.90;;;;;;5033899;28;20645;-80
2021/07/01 12:46:45;;;;;;;0.45;0.40;;;17.00;99.90;;;;;;5033705;28;20198;-80
2021/07/01 12:49:25;;;;;;;0.50;0.40;;;17.10;99.90;;;;;;5032518;28;20696;-79
2021/07/01 12:51:58;;;;;;;0.40;0.38;;;17.20;99.90;;;;;;5032434;28;20879;-78
2021/07/01 12:54:24;;;;;;;0.52;0.45;;;17.00;99.90;;;;;;5030383;28;20531;-79
2021/07/01 12:56:51;;;;;;;0.32;0.30;;;17.10;99.90;;;;;;5029151;28;20224;-78
2021/07/01 12:59:18;;;;;;;0.30;0.30;;;17.10;99.90;;;;;;5029470;28;20687;-78